createdAt,value
2023-03-06T00:00:05.194Z,21.50
2023-03-06T00:03:04.638Z,22.90
2023-03-06T00:05:37.503Z,26.50
2023-03-06T00:08:10.470Z,25.10
2023-03-06T00:10:43.551Z,25.60
2023-03-06T00:13:19.274Z,29.80
2023-03-06T00:15:52.162Z,23.10
2023-03-06T00:18:24.882Z,23.70
2023-03-06T00:21:00.730Z,25.90
2023-03-06T00:23:33.395Z,23.70
2023-03-06T00:26:08.523Z,27.50
2023-03-06T00:28:42.208Z,26.10
2023-03-06T00:31:15.102Z,22.90
2023-03-06T00:33:48.026Z,26.90
2023-03-06T00:36:21.186Z,26.70
2023-03-06T00:38:55.707Z,27.00
2023-03-06T00:41:30.909Z,25.80
2023-03-06T00:44:03.881Z,28.40
2023-03-06T00:46:36.657Z,24.80
2023-03-06T00:49:09.735Z,23.10
2023-03-06T00:51:44.891Z,18.30
2023-03-06T00:54:18.015Z,17.50
2023-03-06T00:56:53.468Z,18.40
2023-03-06T00:59:27.671Z,18.20
2023-03-06T01:02:01.182Z,21.40
2023-03-06T01:04:34.358Z,20.60
2023-03-06T01:07:07.429Z,19.90
2023-03-06T01:09:40.284Z,19.70
2023-03-06T01:12:13.393Z,19.50
2023-03-06T01:14:47.515Z,18.70
2023-03-06T01:17:20.542Z,27.20
2023-03-06T01:19:53.465Z,33.10
2023-03-06T01:22:26.272Z,23.20
2023-03-06T01:24:58.996Z,22.70
2023-03-06T01:27:33.746Z,21.40
2023-03-06T01:30:07.639Z,20.50
2023-03-06T01:32:40.498Z,19.10
2023-03-06T01:35:14.584Z,20.30
2023-03-06T01:37:47.413Z,19.20
2023-03-06T01:40:21.122Z,21.50
2023-03-06T01:42:55.201Z,18.30
2023-03-06T01:46:02.599Z,18.50
2023-03-06T01:48:35.736Z,19.60
2023-03-06T01:51:08.705Z,18.90
2023-03-06T01:53:43.443Z,17.70
2023-03-06T01:56:17.262Z,18.20
2023-03-06T01:58:51.589Z,19.30
2023-03-06T02:01:24.764Z,17.30
2023-03-06T02:03:58.531Z,20.40
2023-03-06T02:06:32.171Z,17.60
2023-03-06T02:09:09.560Z,18.50
2023-03-06T02:11:44.415Z,17.30
2023-03-06T02:14:18.621Z,19.00
2023-03-06T02:16:51.943Z,16.30
2023-03-06T02:19:39.409Z,14.90
2023-03-06T02:22:12.172Z,15.00
2023-03-06T02:24:53.241Z,12.90
2023-03-06T02:27:28.031Z,12.70
2023-03-06T02:30:01.382Z,12.10
2023-03-06T02:32:34.900Z,12.00
2023-03-06T02:35:19.238Z,10.90
2023-03-06T02:37:52.996Z,14.00
2023-03-06T02:40:28.630Z,13.00
2023-03-06T02:43:02.649Z,13.40
2023-03-06T02:45:38.779Z,10.70
2023-03-06T02:48:12.303Z,10.80
2023-03-06T02:50:46.285Z,11.60
2023-03-06T02:53:21.443Z,10.70
2023-03-06T02:55:53.971Z,10.30
2023-03-06T02:58:29.418Z,13.00
2023-03-06T03:01:02.232Z,9.60
2023-03-06T03:03:35.365Z,10.00
2023-03-06T03:06:11.425Z,9.30
2023-03-06T03:08:44.318Z,10.70
2023-03-06T03:11:17.704Z,12.50
2023-03-06T03:13:50.805Z,11.50
2023-03-06T03:16:27.909Z,10.90
2023-03-06T03:19:03.242Z,11.90
2023-03-06T03:21:36.790Z,10.20
2023-03-06T03:24:10.656Z,10.30
2023-03-06T03:26:43.537Z,10.10
2023-03-06T03:29:20.453Z,11.20
2023-03-06T03:31:53.343Z,12.30
2023-03-06T03:34:29.715Z,12.40
2023-03-06T03:37:03.130Z,17.40
2023-03-06T03:39:37.560Z,14.30
2023-03-06T03:42:10.838Z,12.60
2023-03-06T03:44:44.673Z,14.50
2023-03-06T03:47:17.497Z,14.00
2023-03-06T03:49:50.381Z,16.20
2023-03-06T03:52:25.692Z,13.40
2023-03-06T03:54:58.798Z,11.20
2023-03-06T03:57:31.869Z,10.30
2023-03-06T04:00:08.141Z,11.40
2023-03-06T04:02:48.275Z,10.00
2023-03-06T04:05:41.338Z,9.80
2023-03-06T04:08:14.871Z,10.00
2023-03-06T04:10:51.584Z,9.40
2023-03-06T04:13:26.111Z,10.90
2023-03-06T04:16:04.080Z,11.20
2023-03-06T04:18:37.886Z,9.80
2023-03-06T04:21:11.263Z,9.30
2023-03-06T04:23:44.804Z,10.60
2023-03-06T04:26:17.776Z,9.50
2023-03-06T04:28:51.296Z,10.30
2023-03-06T04:31:24.728Z,10.20
2023-03-06T04:33:57.738Z,9.80
2023-03-06T04:36:33.741Z,10.80
2023-03-06T04:39:10.692Z,9.90
2023-03-06T04:41:43.744Z,10.00
2023-03-06T04:44:16.511Z,13.40
2023-03-06T04:46:52.491Z,12.60
2023-03-06T04:49:25.357Z,12.20
2023-03-06T04:51:58.195Z,14.30
2023-03-06T04:54:30.923Z,13.50
2023-03-06T04:57:04.175Z,15.20
2023-03-06T04:59:39.297Z,14.30
2023-03-06T05:02:12.002Z,15.50
2023-03-06T05:04:45.073Z,13.90
2023-03-06T05:07:17.804Z,13.70
2023-03-06T05:09:50.387Z,13.40
2023-03-06T05:12:24.321Z,13.60
2023-03-06T05:14:57.285Z,15.60
2023-03-06T05:17:30.379Z,17.40
2023-03-06T05:20:06.207Z,20.90
2023-03-06T05:22:39.106Z,16.80
2023-03-06T05:25:14.811Z,15.10
2023-03-06T05:27:48.205Z,14.50
2023-03-06T05:30:23.399Z,13.90
2023-03-06T05:32:58.376Z,15.30
2023-03-06T05:35:45.866Z,14.20
2023-03-06T05:38:24.494Z,16.00
2023-03-06T05:40:57.392Z,17.00
2023-03-06T05:43:33.357Z,16.50
2023-03-06T05:46:10.544Z,15.40
2023-03-06T05:48:45.326Z,18.80
2023-03-06T05:51:19.673Z,20.30
2023-03-06T05:53:52.570Z,18.20
2023-03-06T05:56:25.399Z,23.60
2023-03-06T05:58:59.576Z,26.10
2023-03-06T06:01:32.221Z,21.70
2023-03-06T06:04:05.010Z,19.00
2023-03-06T06:06:37.838Z,23.40
2023-03-06T06:09:13.989Z,21.80
2023-03-06T06:11:47.178Z,17.40
2023-03-06T06:14:19.958Z,12.70
2023-03-06T06:16:53.551Z,12.10
2023-03-06T06:19:29.601Z,12.00
2023-03-06T06:22:04.117Z,14.00
2023-03-06T06:24:36.931Z,19.60
2023-03-06T06:27:10.400Z,14.20
2023-03-06T06:29:43.399Z,15.40
2023-03-06T06:32:16.411Z,12.80
2023-03-06T06:34:49.454Z,13.00
2023-03-06T06:37:22.312Z,10.70
2023-03-06T06:39:55.180Z,13.20
2023-03-06T06:42:36.984Z,11.70
2023-03-06T06:45:14.297Z,9.70
2023-03-06T06:47:47.127Z,10.10
2023-03-06T06:50:20.178Z,12.50
2023-03-06T06:52:53.088Z,10.50
2023-03-06T06:55:25.865Z,11.10
2023-03-06T06:57:58.876Z,11.80
2023-03-06T07:00:32.275Z,11.40
2023-03-06T07:03:05.298Z,11.40
2023-03-06T07:05:38.077Z,11.60
2023-03-06T07:08:11.013Z,11.90
2023-03-06T07:10:43.963Z,13.50
2023-03-06T07:13:17.574Z,14.00
2023-03-06T07:15:50.722Z,14.70
2023-03-06T07:18:23.236Z,14.00
2023-03-06T07:20:56.986Z,16.40
2023-03-06T07:23:30.582Z,14.00
2023-03-06T07:26:03.446Z,13.70
2023-03-06T07:28:51.268Z,15.80
2023-03-06T07:31:27.545Z,14.90
2023-03-06T07:34:00.529Z,15.20
2023-03-06T07:36:36.042Z,13.50
2023-03-06T07:39:09.058Z,14.10
2023-03-06T07:41:42.121Z,13.80
2023-03-06T07:44:15.012Z,17.00
2023-03-06T07:46:49.125Z,14.80
2023-03-06T07:49:21.867Z,14.60
2023-03-06T07:51:54.380Z,21.20
2023-03-06T07:54:27.116Z,16.80
2023-03-06T07:57:01.813Z,16.40
2023-03-06T07:59:34.553Z,18.20
2023-03-06T08:02:07.301Z,21.20
2023-03-06T08:04:39.985Z,19.40
2023-03-06T08:07:13.374Z,17.80
2023-03-06T08:09:47.449Z,14.20
2023-03-06T08:12:19.948Z,17.70
2023-03-06T08:14:52.525Z,16.60
2023-03-06T08:17:25.368Z,15.00
2023-03-06T08:19:58.154Z,16.60
2023-03-06T08:22:31.926Z,15.60
2023-03-06T08:25:06.063Z,14.40
2023-03-06T08:27:39.186Z,11.30
2023-03-06T08:30:15.081Z,11.50
2023-03-06T08:32:47.992Z,10.90
2023-03-06T08:35:22.592Z,14.20
2023-03-06T08:37:55.214Z,13.90
2023-03-06T08:40:30.720Z,14.30
2023-03-06T08:43:04.128Z,16.10
2023-03-06T08:45:36.827Z,16.00
2023-03-06T08:48:09.369Z,18.30
2023-03-06T08:50:43.899Z,17.30
2023-03-06T08:53:16.648Z,15.50
2023-03-06T08:55:49.817Z,15.50
2023-03-06T08:58:22.638Z,15.90
2023-03-06T09:00:55.613Z,14.90
2023-03-06T09:03:28.297Z,16.10
2023-03-06T09:06:02.501Z,15.30
2023-03-06T09:08:35.194Z,17.20
2023-03-06T09:11:09.584Z,16.10
2023-03-06T09:13:44.569Z,17.90
2023-03-06T09:16:17.347Z,18.20
2023-03-06T09:18:54.100Z,18.00
2023-03-06T09:21:28.813Z,18.80
2023-03-06T09:24:03.942Z,15.60
2023-03-06T09:26:46.171Z,16.80
2023-03-06T09:29:20.158Z,16.70
2023-03-06T09:31:52.684Z,16.00
2023-03-06T09:34:27.790Z,16.90
2023-03-06T09:37:03.053Z,15.70
2023-03-06T09:39:35.847Z,17.00
2023-03-06T09:42:14.917Z,15.50
2023-03-06T09:44:53.203Z,15.00
2023-03-06T09:47:51.831Z,14.30
2023-03-06T09:50:35.455Z,15.20
2023-03-06T09:53:33.984Z,14.10
2023-03-06T09:56:14.990Z,14.30
2023-03-06T09:58:52.909Z,14.60
2023-03-06T10:01:29.464Z,16.80
2023-03-06T10:04:10.693Z,15.70
2023-03-06T10:06:50.399Z,14.60
2023-03-06T10:09:26.659Z,14.50
2023-03-06T10:12:02.182Z,12.20
2023-03-06T10:14:39.344Z,13.00
2023-03-06T10:17:21.528Z,11.90
2023-03-06T10:19:55.458Z,14.80
2023-03-06T10:22:33.133Z,13.70
2023-03-06T10:25:14.443Z,12.20
2023-03-06T10:27:51.391Z,14.80
2023-03-06T10:30:35.108Z,12.10
2023-03-06T10:33:19.456Z,13.70
2023-03-06T10:35:55.022Z,11.70
2023-03-06T10:38:38.496Z,13.60
2023-03-06T10:41:23.187Z,12.00
2023-03-06T10:44:25.729Z,11.60
2023-03-06T10:46:58.470Z,9.20
2023-03-06T10:49:34.664Z,10.00
2023-03-06T10:52:22.083Z,10.90
2023-03-06T10:55:27.648Z,11.70
2023-03-06T10:58:17.796Z,14.50
2023-03-06T11:01:01.148Z,11.30
2023-03-06T11:03:34.348Z,10.70
2023-03-06T11:06:13.080Z,10.90
2023-03-06T11:08:47.515Z,10.60
2023-03-06T11:11:37.084Z,9.60
2023-03-06T11:14:18.509Z,10.90
2023-03-06T11:16:53.585Z,11.30
2023-03-06T11:19:29.810Z,11.50
2023-03-06T11:22:19.392Z,9.80
2023-03-06T11:24:55.438Z,13.30
2023-03-06T11:27:35.125Z,8.40
2023-03-06T11:30:19.146Z,9.50
2023-03-06T11:32:56.551Z,9.50
2023-03-06T11:35:35.856Z,9.40
2023-03-06T11:38:18.039Z,9.70
2023-03-06T11:40:55.876Z,9.10
2023-03-06T11:43:37.053Z,9.70
2023-03-06T11:46:17.752Z,9.70
2023-03-06T11:48:58.465Z,9.50
2023-03-06T11:51:36.247Z,10.70
2023-03-06T11:54:10.988Z,11.80
2023-03-06T11:56:53.223Z,9.40
2023-03-06T11:59:52.381Z,9.60
2023-03-06T12:02:39.561Z,9.60
2023-03-06T12:05:28.490Z,8.80
2023-03-06T12:08:12.878Z,8.90
2023-03-06T12:10:52.387Z,7.80
2023-03-06T12:13:42.534Z,10.00
2023-03-06T12:16:42.454Z,15.40
2023-03-06T12:19:33.322Z,9.80
2023-03-06T12:22:17.242Z,9.80
2023-03-06T12:25:07.922Z,14.90
2023-03-06T12:27:47.494Z,10.40
2023-03-06T12:30:33.507Z,9.00
2023-03-06T12:33:21.216Z,9.00
2023-03-06T12:36:15.549Z,11.30
2023-03-06T12:39:01.140Z,11.90
2023-03-06T12:41:44.884Z,10.40
2023-03-06T12:44:36.063Z,8.20
2023-03-06T12:47:13.011Z,10.60
2023-03-06T12:49:51.519Z,8.90
2023-03-06T12:52:30.512Z,9.30
2023-03-06T12:55:07.299Z,10.80
2023-03-06T12:57:41.822Z,10.30
2023-03-06T13:00:58.711Z,9.60
2023-03-06T13:03:54.641Z,9.90
2023-03-06T13:06:52.162Z,8.40
2023-03-06T13:09:34.815Z,11.40
2023-03-06T13:12:29.994Z,11.90
2023-03-06T13:15:20.781Z,12.20
2023-03-06T13:17:53.530Z,9.20
2023-03-06T13:20:40.948Z,12.80
2023-03-06T13:23:44.080Z,45.20
2023-03-06T13:26:55.431Z,24.90
2023-03-06T13:29:55.122Z,11.00
2023-03-06T13:32:34.994Z,31.60
2023-03-06T13:35:49.685Z,13.90
2023-03-06T13:39:07.344Z,13.00
2023-03-06T13:41:57.372Z,32.40
2023-03-06T13:44:51.153Z,48.50
2023-03-06T13:50:50.071Z,9.10
2023-03-06T13:53:55.309Z,12.70
2023-03-06T13:57:00.514Z,10.70
2023-03-06T14:00:03.087Z,8.70
2023-03-06T14:03:06.656Z,9.00
2023-03-06T14:05:47.467Z,12.20
2023-03-06T14:08:22.025Z,12.20
2023-03-06T14:11:06.187Z,10.80
2023-03-06T14:13:49.109Z,9.60
2023-03-06T14:16:24.959Z,10.90
2023-03-06T14:18:58.833Z,9.40
2023-03-06T14:21:39.516Z,10.60
2023-03-06T14:24:20.321Z,9.10
2023-03-06T14:26:54.306Z,8.30
2023-03-06T14:29:29.204Z,8.10
2023-03-06T14:32:06.074Z,9.70
2023-03-06T14:34:45.584Z,8.70
2023-03-06T14:37:26.939Z,6.40
2023-03-06T14:39:59.773Z,6.80
2023-03-06T14:42:33.172Z,7.20
2023-03-06T14:45:21.610Z,5.30
2023-03-06T14:47:55.238Z,6.50
2023-03-06T14:50:30.345Z,6.20
2023-03-06T14:53:07.785Z,5.10
2023-03-06T14:55:51.742Z,10.60
2023-03-06T14:58:31.158Z,11.10
2023-03-06T15:01:07.225Z,13.60
2023-03-06T15:03:48.896Z,12.00
2023-03-06T15:09:02.463Z,6.90
2023-03-06T15:12:00.363Z,10.30
2023-03-06T15:14:38.867Z,8.40
2023-03-06T15:17:27.540Z,9.20
2023-03-06T15:20:02.761Z,9.00
2023-03-06T15:22:39.018Z,9.60
2023-03-06T15:25:26.851Z,8.60
2023-03-06T15:28:02.967Z,10.20
2023-03-06T15:33:26.592Z,14.20
2023-03-06T15:36:01.944Z,14.30
2023-03-06T15:38:41.993Z,28.70
2023-03-06T15:41:29.833Z,29.20
2023-03-06T15:44:04.351Z,25.30
2023-03-06T15:46:37.805Z,19.10
2023-03-06T15:49:18.735Z,18.80
2023-03-06T15:51:53.774Z,14.10
2023-03-06T15:54:26.692Z,12.80
2023-03-06T15:57:01.197Z,18.70
2023-03-06T15:59:44.931Z,11.50
2023-03-06T16:02:22.056Z,13.00
2023-03-06T16:04:55.109Z,12.10
2023-03-06T16:07:29.300Z,15.90
2023-03-06T16:10:02.043Z,19.30
2023-03-06T16:12:35.325Z,16.40
2023-03-06T16:15:17.910Z,39.10
2023-03-06T16:17:53.050Z,38.80
2023-03-06T16:20:28.175Z,69.40
2023-03-06T16:23:01.238Z,70.80
2023-03-06T16:25:34.386Z,37.70
2023-03-06T16:28:11.680Z,28.50
2023-03-06T16:30:53.680Z,38.30
2023-03-06T16:33:36.617Z,49.80
2023-03-06T16:36:18.025Z,50.50
2023-03-06T16:38:52.018Z,35.90
2023-03-06T16:41:24.643Z,45.60
2023-03-06T16:43:57.217Z,35.80
2023-03-06T16:46:30.624Z,35.70
2023-03-06T16:49:15.220Z,30.40
2023-03-06T16:51:50.412Z,29.70
2023-03-06T16:54:26.179Z,34.00
2023-03-06T16:56:58.792Z,34.20
2023-03-06T16:59:31.770Z,32.90
2023-03-06T17:02:04.561Z,40.50
2023-03-06T17:04:37.612Z,68.50
2023-03-06T17:07:10.454Z,84.90
2023-03-06T17:09:43.635Z,66.50
2023-03-06T17:12:16.728Z,36.40
2023-03-06T17:14:49.763Z,22.10
2023-03-06T17:17:22.563Z,17.30
2023-03-06T17:20:16.885Z,16.00
2023-03-06T17:22:51.212Z,20.30
2023-03-06T17:25:35.674Z,17.90
2023-03-06T17:28:08.641Z,17.70
2023-03-06T17:31:03.515Z,17.50
2023-03-06T17:33:39.450Z,16.60
2023-03-06T17:36:22.673Z,22.00
2023-03-06T17:39:05.644Z,21.70
2023-03-06T17:41:38.354Z,21.90
2023-03-06T17:44:12.435Z,27.00
2023-03-06T17:46:48.596Z,30.80
2023-03-06T17:49:24.099Z,28.40
2023-03-06T17:51:59.878Z,31.50
2023-03-06T17:54:33.343Z,32.40
2023-03-06T17:57:06.681Z,34.10
2023-03-06T17:59:46.839Z,25.60
2023-03-06T18:02:21.285Z,27.20
2023-03-06T18:04:56.538Z,22.80
2023-03-06T18:07:29.203Z,24.10
2023-03-06T18:10:01.736Z,42.40
2023-03-06T18:12:34.644Z,42.70
2023-03-06T18:15:12.572Z,33.40
2023-03-06T18:17:45.241Z,33.40
2023-03-06T18:20:20.223Z,32.10
2023-03-06T18:23:04.734Z,35.60
2023-03-06T18:25:47.634Z,31.80
2023-03-06T18:28:20.447Z,27.00
2023-03-06T18:30:58.741Z,21.90
2023-03-06T18:33:33.018Z,21.30
2023-03-06T18:36:09.772Z,19.40
2023-03-06T18:38:44.091Z,51.90
2023-03-06T18:41:38.429Z,60.40
2023-03-06T18:44:31.266Z,27.70
2023-03-06T18:47:25.300Z,27.80
2023-03-06T18:50:18.873Z,26.40
2023-03-06T18:53:12.766Z,23.10
2023-03-06T18:55:56.733Z,24.00
2023-03-06T18:58:50.434Z,22.20
2023-03-06T19:01:25.560Z,26.10
2023-03-06T19:04:00.239Z,30.40
2023-03-06T19:06:33.307Z,31.10
2023-03-06T19:09:07.019Z,32.00
2023-03-06T19:11:39.826Z,27.90
2023-03-06T19:14:15.467Z,27.70
2023-03-06T19:16:50.475Z,32.50
2023-03-06T19:19:26.381Z,28.60
2023-03-06T19:22:02.406Z,29.90
2023-03-06T19:24:55.302Z,33.40
2023-03-06T19:27:27.863Z,30.50
2023-03-06T19:30:17.529Z,34.90
2023-03-06T19:33:03.098Z,41.60
2023-03-06T19:35:55.987Z,80.20
2023-03-06T19:38:29.946Z,68.80
2023-03-06T19:41:16.349Z,43.40
2023-03-06T19:44:10.642Z,43.10
2023-03-06T19:47:03.369Z,38.50
2023-03-06T19:49:57.659Z,54.30
2023-03-06T19:52:33.264Z,50.30
2023-03-06T19:55:10.881Z,44.20
2023-03-06T19:57:46.703Z,45.80
2023-03-06T20:00:30.578Z,54.30
2023-03-06T20:03:05.779Z,48.10
2023-03-06T20:05:51.214Z,50.60
2023-03-06T20:08:44.712Z,38.40
2023-03-06T20:11:37.521Z,38.10
2023-03-06T20:14:30.442Z,38.50
2023-03-06T20:17:05.522Z,38.70
2023-03-06T20:19:48.167Z,31.00
2023-03-06T20:22:31.855Z,29.00
2023-03-06T20:25:08.524Z,32.30
2023-03-06T20:28:01.333Z,25.50
2023-03-06T20:30:54.219Z,28.80
2023-03-06T20:33:36.240Z,42.00
2023-03-06T20:36:18.828Z,48.50
2023-03-06T20:38:51.832Z,33.20
2023-03-06T20:41:34.826Z,28.50
2023-03-06T20:44:18.874Z,29.60
2023-03-06T20:46:52.224Z,31.20
2023-03-06T20:49:28.552Z,32.00
2023-03-06T20:52:31.619Z,30.20
2023-03-06T20:55:08.474Z,27.00
2023-03-06T20:58:01.386Z,29.00
2023-03-06T21:00:54.187Z,24.30
2023-03-06T21:03:27.130Z,27.30
2023-03-06T21:06:09.121Z,28.30
2023-03-06T21:09:01.402Z,28.60
2023-03-06T21:11:44.317Z,25.00
2023-03-06T21:14:20.747Z,27.20
2023-03-06T21:17:13.967Z,26.00
2023-03-06T21:20:00.564Z,29.40
2023-03-06T21:22:46.798Z,24.10
2023-03-06T21:25:25.280Z,27.60
2023-03-06T21:28:08.003Z,28.30
2023-03-06T21:30:49.353Z,38.50
2023-03-06T21:33:42.692Z,47.60
2023-03-06T21:36:37.306Z,31.20
2023-03-06T21:39:30.127Z,33.60
2023-03-06T21:42:24.144Z,32.80
2023-03-06T21:45:07.877Z,30.70
2023-03-06T21:48:01.462Z,29.10
2023-03-06T21:50:54.240Z,27.70
2023-03-06T21:53:48.069Z,26.90
2023-03-06T21:56:40.721Z,25.60
2023-03-06T21:59:33.476Z,26.10
2023-03-06T22:02:11.497Z,26.50
2023-03-06T22:04:53.368Z,27.90
2023-03-06T22:07:47.542Z,27.00
2023-03-06T22:10:42.857Z,27.70
2023-03-06T22:13:35.753Z,26.90
2023-03-06T22:16:28.840Z,26.20
2023-03-06T22:19:21.728Z,28.90
2023-03-06T22:22:04.996Z,25.40
2023-03-06T22:24:56.379Z,27.80
2023-03-06T22:27:33.298Z,43.40
2023-03-06T22:30:26.033Z,37.10
2023-03-06T22:33:01.904Z,28.30
2023-03-06T22:35:34.678Z,30.30
2023-03-06T22:38:08.277Z,29.60
2023-03-06T22:40:40.943Z,24.80
2023-03-06T22:43:13.654Z,23.00
2023-03-06T22:45:46.563Z,21.30
2023-03-06T22:48:19.082Z,21.70
2023-03-06T22:50:54.728Z,21.00
2023-03-06T22:53:27.273Z,22.30
2023-03-06T22:56:02.031Z,21.60
2023-03-06T22:58:37.342Z,21.80
2023-03-06T23:01:12.402Z,22.50
2023-03-06T23:03:48.231Z,20.60
2023-03-06T23:06:23.782Z,21.40
2023-03-06T23:08:58.110Z,24.60
2023-03-06T23:11:31.927Z,21.50
2023-03-06T23:14:22.972Z,22.10
2023-03-06T23:17:13.884Z,21.90
2023-03-06T23:20:10.034Z,23.30
2023-03-06T23:23:00.982Z,22.60
2023-03-06T23:25:48.992Z,23.20
2023-03-06T23:28:21.551Z,72.20
2023-03-06T23:30:54.280Z,72.00
2023-03-06T23:33:27.124Z,44.40
2023-03-06T23:36:02.742Z,31.50
2023-03-06T23:38:36.111Z,28.80
2023-03-06T23:41:11.887Z,26.60
2023-03-06T23:43:45.102Z,26.30
2023-03-06T23:46:18.646Z,31.60
2023-03-06T23:48:51.734Z,33.20
2023-03-06T23:51:25.125Z,33.10
2023-03-06T23:53:59.558Z,37.90
2023-03-06T23:56:32.326Z,31.40
2023-03-06T23:59:04.845Z,33.00
